createdAt,value
2017-05-10T00:00:10.976Z,0
2017-05-10T00:00:37.061Z,0
2017-05-10T00:01:03.135Z,0
2017-05-10T00:01:29.252Z,0
2017-05-10T00:01:55.329Z,0
2017-05-10T00:02:21.442Z,0
2017-05-10T00:02:47.546Z,0
2017-05-10T00:03:13.667Z,0
2017-05-10T00:03:39.810Z,0
2017-05-10T00:04:05.942Z,0
2017-05-10T00:04:32.080Z,0
2017-05-10T00:04:58.197Z,0
2017-05-10T00:05:24.310Z,0
2017-05-10T00:05:50.405Z,0
2017-05-10T00:06:16.514Z,0
2017-05-10T00:06:42.603Z,0
2017-05-10T00:07:08.703Z,0
2017-05-10T00:07:34.781Z,0
2017-05-10T00:08:00.857Z,0
2017-05-10T00:08:26.996Z,0
2017-05-10T00:08:53.133Z,0
2017-05-10T00:09:19.206Z,0
2017-05-10T00:09:45.339Z,0
2017-05-10T00:10:11.481Z,0
2017-05-10T00:10:37.548Z,0
2017-05-10T00:11:03.652Z,0
2017-05-10T00:11:29.769Z,0
2017-05-10T00:11:55.864Z,0
2017-05-10T00:12:21.970Z,0
2017-05-10T00:12:48.112Z,0
2017-05-10T00:13:14.240Z,0
2017-05-10T00:13:40.313Z,0
2017-05-10T00:14:06.433Z,0
2017-05-10T00:14:32.519Z,0
2017-05-10T00:14:58.593Z,0
2017-05-10T00:15:24.685Z,0
2017-05-10T00:15:50.770Z,0
2017-05-10T00:16:16.852Z,0
2017-05-10T00:16:42.936Z,0
2017-05-10T00:17:09.026Z,0
2017-05-10T00:17:35.119Z,0
2017-05-10T00:18:01.226Z,0
2017-05-10T00:18:27.331Z,0
2017-05-10T00:18:53.476Z,0
2017-05-10T00:19:19.584Z,0
2017-05-10T00:19:45.660Z,0
2017-05-10T00:20:11.791Z,0
2017-05-10T00:20:37.889Z,0
2017-05-10T00:21:03.979Z,0
2017-05-10T00:21:30.109Z,0
2017-05-10T00:21:56.200Z,0
2017-05-10T00:22:22.298Z,0
2017-05-10T00:22:48.398Z,0
2017-05-10T00:23:14.516Z,0
2017-05-10T00:23:40.643Z,0
2017-05-10T00:24:06.733Z,0
2017-05-10T00:24:32.807Z,0
2017-05-10T00:24:58.893Z,0
2017-05-10T00:25:25.013Z,0
2017-05-10T00:25:51.107Z,0
2017-05-10T00:26:17.209Z,0
2017-05-10T00:26:43.323Z,0
2017-05-10T00:27:09.429Z,0
2017-05-10T00:27:35.547Z,0
2017-05-10T00:28:01.689Z,0
2017-05-10T00:28:27.794Z,0
2017-05-10T00:28:53.891Z,0
2017-05-10T00:29:20.091Z,0
2017-05-10T00:29:46.156Z,0
2017-05-10T00:30:12.296Z,0
2017-05-10T00:30:38.399Z,0
2017-05-10T00:31:04.496Z,0
2017-05-10T00:31:30.590Z,0
2017-05-10T00:31:56.698Z,0
2017-05-10T00:32:22.775Z,0
2017-05-10T00:32:48.893Z,0
2017-05-10T00:33:15.050Z,0
2017-05-10T00:33:41.124Z,0
2017-05-10T00:34:07.260Z,0
2017-05-10T00:34:33.425Z,0
2017-05-10T00:34:59.529Z,0
2017-05-10T00:35:25.609Z,0
2017-05-10T00:35:51.684Z,0
2017-05-10T00:36:17.821Z,0
2017-05-10T00:36:43.903Z,0
2017-05-10T00:37:09.978Z,0
2017-05-10T00:37:36.137Z,0
2017-05-10T00:38:02.280Z,0
2017-05-10T00:38:28.393Z,0
2017-05-10T00:38:54.502Z,0
2017-05-10T00:39:20.646Z,0
2017-05-10T00:39:46.767Z,0
2017-05-10T00:40:12.894Z,0
2017-05-10T00:40:38.974Z,0
2017-05-10T00:41:05.088Z,0
2017-05-10T00:41:31.179Z,0
2017-05-10T00:41:57.273Z,0
2017-05-10T00:42:23.425Z,0
2017-05-10T00:42:49.590Z,0
2017-05-10T00:43:15.691Z,0
2017-05-10T00:43:41.813Z,0
2017-05-10T00:44:07.930Z,0
2017-05-10T00:44:34.034Z,0
2017-05-10T00:45:00.153Z,0
2017-05-10T00:45:26.273Z,0
2017-05-10T00:45:52.406Z,0
2017-05-10T00:46:18.493Z,0
2017-05-10T00:46:44.618Z,0
2017-05-10T00:47:10.697Z,0
2017-05-10T00:47:36.816Z,0
2017-05-10T00:48:02.968Z,0
2017-05-10T00:48:29.034Z,0
2017-05-10T00:48:55.177Z,0
2017-05-10T00:49:21.310Z,0
2017-05-10T00:49:47.408Z,0
2017-05-10T00:50:13.498Z,0
2017-05-10T00:50:39.609Z,0
2017-05-10T00:51:05.707Z,0
2017-05-10T00:51:31.841Z,0
2017-05-10T00:51:57.915Z,0
2017-05-10T00:52:24.007Z,0
2017-05-10T00:52:50.167Z,0
2017-05-10T00:53:16.262Z,0
2017-05-10T00:53:42.445Z,0
2017-05-10T00:54:08.582Z,0
2017-05-10T00:54:34.677Z,0
2017-05-10T00:55:00.785Z,0
2017-05-10T00:55:26.876Z,0
2017-05-10T00:55:52.949Z,0
2017-05-10T00:56:19.036Z,0
2017-05-10T00:56:45.151Z,0
2017-05-10T00:57:11.248Z,0
2017-05-10T00:57:37.331Z,0
2017-05-10T00:58:03.495Z,0
2017-05-10T00:58:29.647Z,0
2017-05-10T00:58:55.769Z,0
2017-05-10T00:59:21.891Z,0
2017-05-10T00:59:47.998Z,0
2017-05-10T01:00:14.074Z,0
2017-05-10T01:00:40.163Z,0
2017-05-10T01:01:06.247Z,0
2017-05-10T01:01:32.324Z,0
2017-05-10T01:01:58.436Z,0
2017-05-10T01:02:24.527Z,0
2017-05-10T01:02:50.626Z,0
2017-05-10T01:03:16.710Z,0
2017-05-10T01:03:42.847Z,0
2017-05-10T01:04:09.012Z,0
2017-05-10T01:04:35.147Z,0
2017-05-10T01:05:01.222Z,0
2017-05-10T01:05:27.311Z,0
2017-05-10T01:05:53.408Z,0
2017-05-10T01:06:19.495Z,0
2017-05-10T01:06:45.604Z,0
2017-05-10T01:07:11.696Z,0
2017-05-10T01:07:37.793Z,0
2017-05-10T01:08:03.900Z,0
2017-05-10T01:08:30.008Z,0
2017-05-10T01:08:56.096Z,0
2017-05-10T01:09:22.189Z,0
2017-05-10T01:09:48.285Z,0
2017-05-10T01:10:14.393Z,0
2017-05-10T01:10:40.484Z,0
2017-05-10T01:11:06.561Z,0
2017-05-10T01:11:32.663Z,0
2017-05-10T01:11:58.755Z,0
2017-05-10T01:12:24.879Z,0
2017-05-10T01:12:50.952Z,0
2017-05-10T01:13:17.092Z,0
2017-05-10T01:13:43.176Z,0
2017-05-10T01:14:09.304Z,0
2017-05-10T01:14:35.404Z,0
2017-05-10T01:15:01.485Z,0
2017-05-10T01:15:27.576Z,0
2017-05-10T01:15:53.652Z,0
2017-05-10T01:16:19.751Z,0
2017-05-10T01:16:45.893Z,0
2017-05-10T01:17:11.975Z,0
2017-05-10T01:17:38.050Z,0
2017-05-10T01:18:04.184Z,0
2017-05-10T01:18:30.293Z,0
2017-05-10T01:18:56.432Z,0
2017-05-10T01:19:22.541Z,0
2017-05-10T01:19:48.641Z,0
2017-05-10T01:20:14.781Z,0
2017-05-10T01:20:40.908Z,0
2017-05-10T01:21:07.004Z,0
2017-05-10T01:21:33.145Z,0
2017-05-10T01:21:59.275Z,0
2017-05-10T01:22:25.349Z,0
2017-05-10T01:22:51.436Z,0
2017-05-10T01:23:17.577Z,0
2017-05-10T01:23:43.720Z,0
2017-05-10T01:24:09.808Z,0
2017-05-10T01:24:35.951Z,0
2017-05-10T01:25:02.079Z,0
2017-05-10T01:25:28.185Z,0
2017-05-10T01:25:54.260Z,0
2017-05-10T01:26:20.371Z,0
2017-05-10T01:26:46.461Z,0
2017-05-10T01:27:12.533Z,0
2017-05-10T01:27:38.620Z,0
2017-05-10T01:28:04.761Z,0
2017-05-10T01:28:30.860Z,0
2017-05-10T01:28:56.986Z,0
2017-05-10T01:29:23.106Z,0
2017-05-10T01:29:49.233Z,0
2017-05-10T01:30:15.309Z,0
2017-05-10T01:30:41.397Z,0
2017-05-10T01:31:07.483Z,0
2017-05-10T01:31:33.622Z,0
2017-05-10T01:31:59.720Z,0
2017-05-10T01:32:25.800Z,0
2017-05-10T01:32:51.892Z,0
2017-05-10T01:33:18.044Z,0
2017-05-10T01:33:44.164Z,0
2017-05-10T01:34:10.258Z,0
2017-05-10T01:34:36.411Z,0
2017-05-10T01:35:02.552Z,0
2017-05-10T01:35:28.645Z,0
2017-05-10T01:35:54.729Z,0
2017-05-10T01:36:20.862Z,0
2017-05-10T01:36:46.963Z,0
2017-05-10T01:37:13.063Z,0
2017-05-10T01:37:39.155Z,0
2017-05-10T01:38:05.262Z,0
2017-05-10T01:38:31.336Z,0
2017-05-10T01:38:57.448Z,0
2017-05-10T01:39:23.534Z,0
2017-05-10T01:39:49.610Z,0
2017-05-10T01:40:15.766Z,0
2017-05-10T01:40:41.881Z,0
2017-05-10T01:41:07.977Z,0
2017-05-10T01:41:34.063Z,0
2017-05-10T01:42:00.175Z,0
2017-05-10T01:42:26.295Z,0
2017-05-10T01:42:52.401Z,0
2017-05-10T01:43:18.491Z,0
2017-05-10T01:43:44.641Z,0
2017-05-10T01:44:10.781Z,0
2017-05-10T01:44:36.878Z,0
2017-05-10T01:45:02.960Z,0
2017-05-10T01:45:29.033Z,0
2017-05-10T01:45:55.121Z,0
2017-05-10T01:46:21.204Z,0
2017-05-10T01:46:47.298Z,0
2017-05-10T01:47:13.386Z,0
2017-05-10T01:47:39.506Z,0
2017-05-10T01:48:05.624Z,0
2017-05-10T01:48:31.728Z,0
2017-05-10T01:48:57.850Z,0
2017-05-10T01:49:23.963Z,0
2017-05-10T01:49:50.045Z,0
2017-05-10T01:50:16.163Z,0
2017-05-10T01:50:42.250Z,0
2017-05-10T01:51:08.368Z,0
2017-05-10T01:51:34.440Z,0
2017-05-10T01:52:00.526Z,0
2017-05-10T01:52:26.643Z,0
2017-05-10T01:52:52.743Z,0
2017-05-10T01:53:18.877Z,0
2017-05-10T01:53:44.973Z,0
2017-05-10T01:54:11.060Z,0
2017-05-10T01:54:37.228Z,0
2017-05-10T01:55:03.343Z,0
2017-05-10T01:55:29.430Z,0
2017-05-10T01:55:55.521Z,0
2017-05-10T01:56:21.664Z,0
2017-05-10T01:56:47.767Z,0
2017-05-10T01:57:13.907Z,0
2017-05-10T01:57:40.011Z,0
2017-05-10T01:58:06.085Z,0
2017-05-10T01:58:32.201Z,0
2017-05-10T01:58:58.305Z,0
2017-05-10T01:59:24.444Z,0
2017-05-10T01:59:50.568Z,0
2017-05-10T02:00:16.696Z,0
2017-05-10T02:00:42.787Z,0
2017-05-10T02:01:08.890Z,0
2017-05-10T02:01:34.986Z,0
2017-05-10T02:02:01.100Z,0
2017-05-10T02:02:27.183Z,0
2017-05-10T02:02:53.326Z,0
2017-05-10T02:03:19.462Z,0
2017-05-10T02:03:45.598Z,0
2017-05-10T02:04:11.684Z,0
2017-05-10T02:04:37.816Z,0
2017-05-10T02:05:03.955Z,0
2017-05-10T02:05:30.049Z,0
2017-05-10T02:05:56.135Z,0
2017-05-10T02:06:22.231Z,0
2017-05-10T02:06:48.318Z,0
2017-05-10T02:07:14.425Z,0
2017-05-10T02:07:40.521Z,0
2017-05-10T02:08:06.632Z,0
2017-05-10T02:08:32.750Z,0
2017-05-10T02:08:58.845Z,0
2017-05-10T02:09:24.931Z,0
2017-05-10T02:09:51.059Z,0
2017-05-10T02:10:17.210Z,0
2017-05-10T02:10:43.286Z,0
2017-05-10T02:11:09.382Z,0
2017-05-10T02:11:35.491Z,0
2017-05-10T02:12:01.583Z,0
2017-05-10T02:12:27.655Z,0
2017-05-10T02:12:53.760Z,0
2017-05-10T02:13:19.887Z,0
2017-05-10T02:13:45.974Z,0
2017-05-10T02:14:12.073Z,0
2017-05-10T02:14:38.163Z,0
2017-05-10T02:15:04.289Z,0
2017-05-10T02:15:30.400Z,0
2017-05-10T02:15:56.494Z,0
2017-05-10T02:16:22.580Z,0
2017-05-10T02:16:48.669Z,0
2017-05-10T02:17:14.745Z,0
2017-05-10T02:17:40.848Z,0
2017-05-10T02:18:06.991Z,0
2017-05-10T02:18:33.068Z,0
2017-05-10T02:18:59.165Z,0
2017-05-10T02:19:25.281Z,0
2017-05-10T02:19:51.387Z,0
2017-05-10T02:20:17.527Z,0
2017-05-10T02:20:43.640Z,0
2017-05-10T02:21:09.741Z,0
2017-05-10T02:21:35.856Z,0
2017-05-10T02:22:01.932Z,0
2017-05-10T02:22:28.073Z,0
2017-05-10T02:22:54.215Z,0
2017-05-10T02:23:20.325Z,0
2017-05-10T02:23:46.463Z,0
2017-05-10T02:24:12.598Z,0
2017-05-10T02:24:38.682Z,0
2017-05-10T02:25:04.777Z,0
2017-05-10T02:25:30.868Z,0
2017-05-10T02:25:56.986Z,0
2017-05-10T02:26:23.101Z,0
2017-05-10T02:26:49.205Z,0
2017-05-10T02:27:15.319Z,0
2017-05-10T02:27:41.416Z,0
2017-05-10T02:28:07.559Z,0
2017-05-10T02:28:33.677Z,0
2017-05-10T02:28:59.802Z,0
2017-05-10T02:29:25.919Z,0
2017-05-10T02:29:52.042Z,0
2017-05-10T02:30:18.143Z,0
2017-05-10T02:30:44.220Z,0
2017-05-10T02:31:10.334Z,0
2017-05-10T02:31:36.419Z,0
2017-05-10T02:32:02.575Z,0
2017-05-10T02:32:28.678Z,0
2017-05-10T02:32:54.756Z,0
2017-05-10T02:33:20.893Z,0
2017-05-10T02:33:47.025Z,0
2017-05-10T02:34:13.098Z,0
2017-05-10T02:34:39.188Z,0
2017-05-10T02:35:05.274Z,0
2017-05-10T02:35:31.348Z,0
2017-05-10T02:35:57.457Z,0
2017-05-10T02:36:23.551Z,0
2017-05-10T02:36:49.647Z,0
2017-05-10T02:37:15.733Z,0
2017-05-10T02:37:41.829Z,0
2017-05-10T02:38:07.943Z,0
2017-05-10T02:38:34.028Z,0
2017-05-10T02:39:00.127Z,0
2017-05-10T02:39:26.265Z,0
2017-05-10T02:39:52.406Z,0
2017-05-10T02:40:18.498Z,0
2017-05-10T02:40:44.603Z,0
2017-05-10T02:41:10.693Z,0
2017-05-10T02:41:36.789Z,0
2017-05-10T02:42:02.871Z,0
2017-05-10T02:42:28.985Z,0
2017-05-10T02:42:55.106Z,0
2017-05-10T02:43:21.169Z,0
2017-05-10T02:43:47.308Z,0
2017-05-10T02:44:13.415Z,0
2017-05-10T02:44:39.533Z,0
2017-05-10T02:45:05.679Z,0
2017-05-10T02:45:31.759Z,0
2017-05-10T02:45:57.849Z,0
2017-05-10T02:46:23.951Z,0
2017-05-10T02:46:50.025Z,0
2017-05-10T02:47:16.118Z,0
2017-05-10T02:47:42.198Z,0
2017-05-10T02:48:08.297Z,0
2017-05-10T02:48:34.436Z,0
2017-05-10T02:49:00.513Z,0
2017-05-10T02:49:26.662Z,0
2017-05-10T02:49:52.755Z,0
2017-05-10T02:50:18.877Z,0
2017-05-10T02:50:44.970Z,0
2017-05-10T02:51:11.081Z,0
2017-05-10T02:51:37.157Z,0
2017-05-10T02:52:03.272Z,0
2017-05-10T02:52:29.382Z,0
2017-05-10T02:52:55.456Z,0
2017-05-10T02:53:21.575Z,0
2017-05-10T02:53:47.714Z,0
2017-05-10T02:54:13.835Z,0
2017-05-10T02:54:39.969Z,0
2017-05-10T02:55:06.044Z,0
2017-05-10T02:55:32.156Z,0
2017-05-10T02:55:58.241Z,0
2017-05-10T02:56:24.339Z,0
2017-05-10T02:56:50.426Z,0
2017-05-10T02:57:16.540Z,0
2017-05-10T02:57:42.634Z,0
2017-05-10T02:58:08.740Z,0
2017-05-10T02:58:34.859Z,0
2017-05-10T02:59:01.006Z,0
2017-05-10T02:59:27.114Z,0
2017-05-10T02:59:53.214Z,0
2017-05-10T03:00:19.324Z,0
2017-05-10T03:00:45.436Z,0
2017-05-10T03:01:11.529Z,0
2017-05-10T03:01:37.635Z,0
2017-05-10T03:02:03.751Z,0
2017-05-10T03:02:29.846Z,0
2017-05-10T03:02:55.971Z,0
2017-05-10T03:03:22.110Z,4
2017-05-10T03:03:48.213Z,4
2017-05-10T03:04:14.289Z,4
2017-05-10T03:04:40.408Z,4
2017-05-10T03:05:06.490Z,4
2017-05-10T03:05:32.623Z,4
2017-05-10T03:05:58.699Z,4
2017-05-10T03:06:24.801Z,4
2017-05-10T03:06:50.918Z,0
2017-05-10T03:07:16.995Z,0
2017-05-10T03:07:43.069Z,4
2017-05-10T03:08:09.183Z,4
2017-05-10T03:08:35.337Z,4
2017-05-10T03:09:01.433Z,4
2017-05-10T03:09:27.578Z,4
2017-05-10T03:09:53.687Z,4
2017-05-10T03:10:19.782Z,4
2017-05-10T03:10:45.891Z,8
2017-05-10T03:11:12.005Z,4
2017-05-10T03:11:38.097Z,4
2017-05-10T03:12:04.229Z,4
2017-05-10T03:12:30.370Z,8
2017-05-10T03:12:56.513Z,8
2017-05-10T03:13:22.618Z,8
2017-05-10T03:13:48.735Z,8
2017-05-10T03:14:14.864Z,8
2017-05-10T03:14:40.961Z,8
2017-05-10T03:15:07.126Z,12
2017-05-10T03:15:33.232Z,8
2017-05-10T03:15:59.304Z,12
2017-05-10T03:16:25.394Z,12
2017-05-10T03:16:51.517Z,16
2017-05-10T03:17:17.610Z,12
2017-05-10T03:17:43.688Z,16
2017-05-10T03:18:09.805Z,12
2017-05-10T03:18:35.920Z,16
2017-05-10T03:19:02.050Z,16
2017-05-10T03:19:28.124Z,16
2017-05-10T03:19:54.238Z,16
2017-05-10T03:20:20.399Z,20
2017-05-10T03:20:46.493Z,20
2017-05-10T03:21:12.600Z,24
2017-05-10T03:21:38.740Z,24
2017-05-10T03:22:04.822Z,24
2017-05-10T03:22:30.899Z,28
2017-05-10T03:22:57.020Z,28
2017-05-10T03:23:23.133Z,32
2017-05-10T03:23:49.237Z,32
2017-05-10T03:24:15.377Z,32
2017-05-10T03:24:41.512Z,40
2017-05-10T03:25:07.653Z,40
2017-05-10T03:25:33.765Z,40
2017-05-10T03:25:59.873Z,44
2017-05-10T03:26:25.990Z,48
2017-05-10T03:26:52.075Z,48
2017-05-10T03:27:18.170Z,52
2017-05-10T03:27:44.303Z,56
2017-05-10T03:28:10.456Z,56
2017-05-10T03:28:36.548Z,56
2017-05-10T03:29:02.644Z,60
2017-05-10T03:29:28.749Z,64
2017-05-10T03:29:54.839Z,68
2017-05-10T03:30:20.965Z,72
2017-05-10T03:30:47.091Z,76
2017-05-10T03:31:13.205Z,80
2017-05-10T03:31:39.301Z,84
2017-05-10T03:32:05.377Z,88
2017-05-10T03:32:31.492Z,92
2017-05-10T03:32:57.599Z,96
2017-05-10T03:33:23.736Z,100
2017-05-10T03:33:49.856Z,104
2017-05-10T03:34:15.938Z,112
2017-05-10T03:34:42.080Z,116
2017-05-10T03:35:08.177Z,120
2017-05-10T03:35:34.251Z,124
2017-05-10T03:36:00.398Z,128
2017-05-10T03:36:26.529Z,132
2017-05-10T03:36:52.623Z,140
2017-05-10T03:37:18.713Z,144
2017-05-10T03:37:44.850Z,152
2017-05-10T03:38:10.948Z,156
2017-05-10T03:38:37.081Z,164
2017-05-10T03:39:03.204Z,172
2017-05-10T03:39:29.325Z,176
2017-05-10T03:39:55.407Z,184
2017-05-10T03:40:21.481Z,192
2017-05-10T03:40:47.597Z,200
2017-05-10T03:41:13.684Z,208
2017-05-10T03:41:39.780Z,212
2017-05-10T03:42:05.869Z,220
2017-05-10T03:42:31.983Z,228
2017-05-10T03:42:58.116Z,236
2017-05-10T03:43:24.206Z,248
2017-05-10T03:43:50.320Z,252
2017-05-10T03:44:16.392Z,260
2017-05-10T03:44:42.533Z,276
2017-05-10T03:45:08.652Z,284
2017-05-10T03:45:34.767Z,292
2017-05-10T03:46:00.881Z,300
2017-05-10T03:46:26.952Z,308
2017-05-10T03:46:53.059Z,320
2017-05-10T03:47:19.152Z,332
2017-05-10T03:47:45.228Z,344
2017-05-10T03:48:11.356Z,352
2017-05-10T03:48:37.497Z,360
2017-05-10T03:49:03.575Z,372
2017-05-10T03:49:29.672Z,388
2017-05-10T03:49:55.758Z,396
2017-05-10T03:50:21.862Z,408
2017-05-10T03:50:47.975Z,420
2017-05-10T03:51:14.072Z,432
2017-05-10T03:51:40.175Z,444
2017-05-10T03:52:06.267Z,456
2017-05-10T03:52:32.350Z,468
2017-05-10T03:52:58.468Z,480
2017-05-10T03:53:24.613Z,492
2017-05-10T03:53:50.743Z,508
2017-05-10T03:54:16.837Z,520
2017-05-10T03:54:42.947Z,536
2017-05-10T03:55:09.032Z,548
2017-05-10T03:55:35.105Z,560
2017-05-10T03:56:01.236Z,576
2017-05-10T03:56:27.329Z,588
2017-05-10T03:56:53.421Z,604
2017-05-10T03:57:19.531Z,616
2017-05-10T03:57:45.646Z,628
2017-05-10T03:58:11.792Z,644
2017-05-10T03:58:37.919Z,660
2017-05-10T03:59:04.035Z,676
2017-05-10T03:59:30.140Z,692
2017-05-10T03:59:56.259Z,704
2017-05-10T04:00:22.372Z,720
2017-05-10T04:00:48.486Z,736
2017-05-10T04:01:14.562Z,748
2017-05-10T04:01:40.658Z,768
2017-05-10T04:02:06.737Z,784
2017-05-10T04:02:32.827Z,796
2017-05-10T04:02:58.934Z,816
2017-05-10T04:03:25.055Z,836
2017-05-10T04:03:51.172Z,852
2017-05-10T04:04:17.253Z,872
2017-05-10T04:04:43.328Z,892
2017-05-10T04:05:09.460Z,916
2017-05-10T04:05:35.544Z,936
2017-05-10T04:06:01.660Z,956
2017-05-10T04:06:27.750Z,980
2017-05-10T04:06:53.825Z,1004
2017-05-10T04:07:19.943Z,1028
2017-05-10T04:07:46.026Z,1052
2017-05-10T04:08:12.104Z,1084
2017-05-10T04:08:38.215Z,1108
2017-05-10T04:09:04.348Z,1136
2017-05-10T04:09:30.445Z,1164
2017-05-10T04:09:56.532Z,1188
2017-05-10T04:10:22.648Z,1220
2017-05-10T04:10:48.736Z,1248
2017-05-10T04:11:14.821Z,1276
2017-05-10T04:11:40.911Z,1300
2017-05-10T04:12:07.035Z,1324
2017-05-10T04:12:33.124Z,1348
2017-05-10T04:12:59.269Z,1372
2017-05-10T04:13:25.373Z,1396
2017-05-10T04:13:51.511Z,1416
2017-05-10T04:14:17.631Z,1440
2017-05-10T04:14:43.714Z,1456
2017-05-10T04:15:09.829Z,1480
2017-05-10T04:15:35.904Z,1500
2017-05-10T04:16:02.007Z,1520
2017-05-10T04:16:28.122Z,1540
2017-05-10T04:16:54.201Z,1564
2017-05-10T04:17:20.298Z,1588
2017-05-10T04:17:46.408Z,1608
2017-05-10T04:18:12.514Z,1632
2017-05-10T04:18:38.657Z,1656
2017-05-10T04:19:04.783Z,1680
2017-05-10T04:19:30.885Z,1704
2017-05-10T04:19:56.972Z,1736
2017-05-10T04:20:23.073Z,1768
2017-05-10T04:20:49.188Z,1804
2017-05-10T04:21:15.281Z,1836
2017-05-10T04:21:41.361Z,1868
2017-05-10T04:22:07.476Z,1900
2017-05-10T04:22:33.615Z,1928
2017-05-10T04:22:59.750Z,1956
2017-05-10T04:23:25.836Z,1980
2017-05-10T04:23:51.936Z,2008
2017-05-10T04:24:18.012Z,2028
2017-05-10T04:24:44.153Z,2052
2017-05-10T04:25:10.257Z,2068
2017-05-10T04:25:36.334Z,2080
2017-05-10T04:26:02.449Z,2088
2017-05-10T04:26:28.533Z,2100
2017-05-10T04:26:54.608Z,2112
2017-05-10T04:27:20.745Z,2128
2017-05-10T04:27:46.838Z,2160
2017-05-10T04:28:12.931Z,2188
2017-05-10T04:28:39.016Z,2220
2017-05-10T04:29:05.121Z,2248
2017-05-10T04:29:31.256Z,2284
2017-05-10T04:29:57.365Z,2328
2017-05-10T04:30:23.463Z,2368
2017-05-10T04:30:49.573Z,2404
2017-05-10T04:31:15.662Z,2440
2017-05-10T04:31:41.757Z,2480
2017-05-10T04:32:07.886Z,2512
2017-05-10T04:32:34.003Z,2548
2017-05-10T04:33:00.100Z,2588
2017-05-10T04:33:26.223Z,2632
2017-05-10T04:33:52.338Z,2680
2017-05-10T04:34:18.417Z,2732
2017-05-10T04:34:44.531Z,2788
2017-05-10T04:35:10.648Z,2848
2017-05-10T04:35:36.731Z,2908
2017-05-10T04:36:02.823Z,2964
2017-05-10T04:36:28.922Z,3024
2017-05-10T04:36:55.022Z,3080
2017-05-10T04:37:21.116Z,3140
2017-05-10T04:37:47.239Z,3200
2017-05-10T04:38:13.357Z,3260
2017-05-10T04:38:39.471Z,3312
2017-05-10T04:39:05.605Z,3364
2017-05-10T04:39:31.705Z,3416
2017-05-10T04:39:57.797Z,3460
2017-05-10T04:40:23.933Z,3504
2017-05-10T04:40:50.008Z,3548
2017-05-10T04:41:16.117Z,3584
2017-05-10T04:41:42.235Z,3624
2017-05-10T04:42:08.304Z,3652
2017-05-10T04:42:34.391Z,3688
2017-05-10T04:43:00.505Z,3724
2017-05-10T04:43:26.624Z,3764
2017-05-10T04:43:52.747Z,3808
2017-05-10T04:44:18.886Z,3844
2017-05-10T04:44:45.012Z,3876
2017-05-10T04:45:11.108Z,3900
2017-05-10T04:45:37.225Z,3928
2017-05-10T04:46:03.331Z,3960
2017-05-10T04:46:29.422Z,3996
2017-05-10T04:46:55.500Z,4020
2017-05-10T04:47:21.579Z,4000
2017-05-10T04:47:47.699Z,4000
2017-05-10T04:48:13.847Z,4056
2017-05-10T04:48:39.922Z,4096
2017-05-10T04:49:06.065Z,4136
2017-05-10T04:49:32.190Z,4176
2017-05-10T04:49:58.267Z,4248
2017-05-10T04:50:24.383Z,4324
2017-05-10T04:50:50.492Z,4396
2017-05-10T04:51:16.579Z,4468
2017-05-10T04:51:42.658Z,4532
2017-05-10T04:52:08.735Z,4608
2017-05-10T04:52:34.896Z,4696
2017-05-10T04:53:01.026Z,4768
2017-05-10T04:53:27.103Z,4796
2017-05-10T04:53:53.244Z,4796
2017-05-10T04:54:19.353Z,4820
2017-05-10T04:54:45.449Z,4900
2017-05-10T04:55:11.560Z,4956
2017-05-10T04:55:37.675Z,5064
2017-05-10T04:56:03.744Z,5180
2017-05-10T04:56:29.852Z,5340
2017-05-10T04:56:55.951Z,5508
2017-05-10T04:57:22.064Z,5632
2017-05-10T04:57:48.149Z,5720
2017-05-10T04:58:14.223Z,5768
2017-05-10T04:58:40.337Z,5804
2017-05-10T04:59:06.479Z,5836
2017-05-10T04:59:32.620Z,5812
2017-05-10T04:59:58.726Z,5680
2017-05-10T05:00:24.843Z,5652
2017-05-10T05:00:50.918Z,5788
2017-05-10T05:01:17.021Z,5896
2017-05-10T05:01:43.138Z,6064
2017-05-10T05:02:09.218Z,6220
2017-05-10T05:02:35.313Z,6328
2017-05-10T05:03:01.476Z,6420
2017-05-10T05:03:27.583Z,6496
2017-05-10T05:03:53.680Z,6540
2017-05-10T05:04:19.819Z,6508
2017-05-10T05:04:45.958Z,6544
2017-05-10T05:05:12.080Z,6656
2017-05-10T05:05:38.168Z,6724
2017-05-10T05:06:04.263Z,6824
2017-05-10T05:06:30.354Z,6964
2017-05-10T05:06:56.460Z,7072
2017-05-10T05:07:22.629Z,7172
2017-05-10T05:07:48.748Z,7276
2017-05-10T05:08:14.856Z,7372
2017-05-10T05:08:40.953Z,7456
2017-05-10T05:09:07.066Z,7520
2017-05-10T05:09:33.207Z,7584
2017-05-10T05:09:59.279Z,7636
2017-05-10T05:10:25.384Z,7672
2017-05-10T05:10:51.475Z,7708
2017-05-10T05:11:17.549Z,7732
2017-05-10T05:11:43.655Z,7744
2017-05-10T05:12:09.793Z,7756
2017-05-10T05:12:35.873Z,7776
2017-05-10T05:13:01.995Z,7792
2017-05-10T05:13:28.156Z,7828
2017-05-10T05:13:54.264Z,7872
2017-05-10T05:14:20.381Z,7936
2017-05-10T05:14:46.455Z,7996
2017-05-10T05:15:12.560Z,8056
2017-05-10T05:15:38.676Z,8132
2017-05-10T05:16:04.755Z,8216
2017-05-10T05:16:30.852Z,8304
2017-05-10T05:16:56.990Z,8380
2017-05-10T05:17:23.096Z,8464
2017-05-10T05:17:49.215Z,8540
2017-05-10T05:18:15.306Z,8616
2017-05-10T05:18:41.416Z,8664
2017-05-10T05:19:07.523Z,8680
2017-05-10T05:19:33.646Z,8724
2017-05-10T05:19:59.744Z,8796
2017-05-10T05:20:25.839Z,8840
2017-05-10T05:20:51.973Z,8932
2017-05-10T05:21:18.065Z,9040
2017-05-10T05:21:44.181Z,9124
2017-05-10T05:22:10.293Z,9196
2017-05-10T05:22:36.371Z,9280
2017-05-10T05:23:02.505Z,9352
2017-05-10T05:23:28.623Z,9420
2017-05-10T05:23:54.694Z,9440
2017-05-10T05:24:20.800Z,9288
2017-05-10T05:24:46.916Z,9100
2017-05-10T05:25:13.017Z,8916
2017-05-10T05:25:39.101Z,8700
2017-05-10T05:26:05.214Z,8508
2017-05-10T05:26:31.364Z,8556
2017-05-10T05:26:57.653Z,8796
2017-05-10T05:27:23.778Z,9076
2017-05-10T05:27:49.860Z,9448
2017-05-10T05:28:15.935Z,9736
2017-05-10T05:28:42.079Z,9896
2017-05-10T05:29:08.217Z,9988
2017-05-10T05:29:34.334Z,10032
2017-05-10T05:30:00.445Z,10092
2017-05-10T05:30:26.522Z,10164
2017-05-10T05:30:52.618Z,10252
2017-05-10T05:31:18.799Z,10376
2017-05-10T05:31:44.921Z,10532
2017-05-10T05:32:11.016Z,10696
2017-05-10T05:32:37.101Z,10844
2017-05-10T05:33:03.201Z,10944
2017-05-10T05:33:29.292Z,10996
2017-05-10T05:33:55.385Z,11004
2017-05-10T05:34:21.457Z,10968
2017-05-10T05:34:47.541Z,10876
2017-05-10T05:35:13.658Z,10756
2017-05-10T05:35:39.730Z,10688
2017-05-10T05:36:05.818Z,10636
2017-05-10T05:36:31.894Z,10608
2017-05-10T05:36:58.024Z,10644
2017-05-10T05:37:24.117Z,10628
2017-05-10T05:37:50.189Z,10540
2017-05-10T05:38:16.298Z,10404
2017-05-10T05:38:42.414Z,10268
2017-05-10T05:39:08.532Z,10180
2017-05-10T05:39:34.639Z,10176
2017-05-10T05:40:00.732Z,10328
2017-05-10T05:40:26.811Z,10752
2017-05-10T05:40:52.907Z,11212
2017-05-10T05:41:19.020Z,11604
2017-05-10T05:41:45.103Z,12080
2017-05-10T05:42:11.194Z,12360
2017-05-10T05:42:37.270Z,12588
2017-05-10T05:43:03.381Z,12760
2017-05-10T05:43:29.501Z,12864
2017-05-10T05:43:55.543Z,12892
2017-05-10T05:44:21.642Z,12888
2017-05-10T05:44:47.735Z,12912
2017-05-10T05:45:13.843Z,12544
2017-05-10T05:45:39.924Z,12488
2017-05-10T05:46:06.012Z,12460
2017-05-10T05:46:32.094Z,12476
2017-05-10T05:46:58.178Z,12492
2017-05-10T05:47:24.284Z,12444
2017-05-10T05:47:50.426Z,12312
2017-05-10T05:48:16.520Z,12052
2017-05-10T05:48:42.630Z,11836
2017-05-10T05:49:08.754Z,11828
2017-05-10T05:49:34.870Z,11768
2017-05-10T05:50:00.980Z,11912
2017-05-10T05:50:27.076Z,12044
2017-05-10T05:50:53.188Z,12044
2017-05-10T05:51:19.279Z,11968
2017-05-10T05:51:45.351Z,11836
2017-05-10T05:52:11.438Z,11748
2017-05-10T05:52:37.516Z,11660
2017-05-10T05:53:03.657Z,11504
2017-05-10T05:53:29.741Z,11088
2017-05-10T05:53:55.818Z,10692
2017-05-10T05:54:21.931Z,10256
2017-05-10T05:54:48.047Z,10068
2017-05-10T05:55:14.167Z,10276
2017-05-10T05:55:40.254Z,10832
2017-05-10T05:56:06.370Z,11456
2017-05-10T05:56:32.445Z,12052
2017-05-10T05:56:58.552Z,12300
2017-05-10T05:57:24.669Z,12332
2017-05-10T05:57:50.821Z,12312
2017-05-10T05:58:16.963Z,12292
2017-05-10T05:58:43.061Z,12224
2017-05-10T05:59:09.166Z,12020
2017-05-10T05:59:35.259Z,11788
2017-05-10T06:00:01.336Z,11596
2017-05-10T06:00:27.419Z,11552
2017-05-10T06:00:53.509Z,11520
2017-05-10T06:01:19.588Z,11628
2017-05-10T06:01:45.684Z,11692
2017-05-10T06:02:11.779Z,11900
2017-05-10T06:02:37.864Z,12088
2017-05-10T06:03:03.985Z,12372
2017-05-10T06:03:30.150Z,12648
2017-05-10T06:03:56.276Z,13008
2017-05-10T06:04:22.449Z,13240
2017-05-10T06:04:48.544Z,13432
2017-05-10T06:05:14.643Z,13600
2017-05-10T06:05:40.763Z,13752
2017-05-10T06:06:06.870Z,13888
2017-05-10T06:06:32.946Z,13996
2017-05-10T06:06:59.038Z,14064
2017-05-10T06:07:25.122Z,14104
2017-05-10T06:07:51.265Z,14120